Time;durP1;ratioP1;P1;durP2;ratioP2;P2;SDS_P1;SDS_P2;PMS_P1;PMS_P2;Temp;Humidity;BMP_temperature;BMP_pressure;BME280_temperature;BME280_humidity;BME280_pressure;Samples;Min_cycle;Max_cycle;Signal;HPM_P1;HPM_P2
2023/07/04 00:01:06;;;;;;;12.20;8.60;;;;;;;19.66;56.16;99637.61;106774;1254;71819;-71
2023/07/04 00:03:34;;;;;;;11.40;7.70;;;;;;;19.67;56.31;99641.17;107612;1254;70928;-70
2023/07/04 00:06:04;;;;;;;12.40;8.20;;;;;;;19.63;56.80;99640.81;106909;1256;72767;-70
2023/07/04 00:08:33;;;;;;;12.50;8.30;;;;;;;19.58;57.30;99642.90;106118;1255;60472;-71
2023/07/04 00:11:03;;;;;;;11.20;8.80;;;;;;;19.55;57.10;99644.17;107224;1254;59700;-70
2023/07/04 00:13:31;;;;;;;10.20;8.50;;;;;;;19.52;56.87;99645.91;106650;1256;72015;-71
2023/07/04 00:16:00;;;;;;;10.50;8.60;;;;;;;19.46;56.82;99643.83;106130;1259;68953;-71
2023/07/04 00:18:29;;;;;;;11.00;8.60;;;;;;;19.46;57.08;99650.33;106095;1256;72660;-71
2023/07/04 00:21:04;;;;;;;11.50;9.00;;;;;;;19.43;56.99;99652.95;105969;1261;60010;-74
2023/07/04 00:23:35;;;;;;;9.60;8.60;;;;;;;19.40;57.00;99650.08;108970;1254;60898;-71
2023/07/04 00:26:06;;;;;;;10.60;8.90;;;;;;;19.40;57.04;99651.63;106655;1255;71851;-74
2023/07/04 00:28:38;;;;;;;11.80;8.80;;;;;;;19.39;57.07;99650.52;105997;1258;69726;-72
2023/07/04 00:31:07;;;;;;;17.00;10.20;;;;;;;19.37;57.17;99651.16;105502;1258;74812;-73
2023/07/04 00:33:35;;;;;;;10.40;9.10;;;;;;;19.34;57.38;99655.06;105529;1264;60461;-74
2023/07/04 00:36:04;;;;;;;11.40;9.40;;;;;;;19.30;57.49;99656.90;105503;1262;61050;-72
2023/07/04 00:38:33;;;;;;;10.70;9.60;;;;;;;19.27;57.50;99660.05;105705;1255;72685;-75
2023/07/04 00:41:06;;;;;;;13.00;11.00;;;;;;;19.24;57.65;99659.61;105807;1260;70184;-72
2023/07/04 00:43:47;;;;;;;11.70;9.90;;;;;;;19.23;57.61;99661.36;106990;1256;71614;-72
2023/07/04 00:46:15;;;;;;;11.20;9.50;;;;;;;19.21;57.67;99663.73;105654;1255;60522;-73
2023/07/04 00:48:44;;;;;;;11.60;10.30;;;;;;;19.20;57.83;99670.31;105634;1260;60414;-76
2023/07/04 00:51:21;;;;;;;11.10;9.50;;;;;;;19.19;58.42;99671.24;105812;1255;74039;-74
2023/07/04 00:53:53;;;;;;;10.20;9.10;;;;;;;19.13;59.40;99670.20;106730;1255;69506;-71
2023/07/04 00:56:25;;;;;;;10.20;9.20;;;;;;;19.04;59.73;99672.45;107465;1254;72900;-72
2023/07/04 00:58:55;;;;;;;12.90;9.70;;;;;;;19.00;59.88;99675.19;105734;1254;60545;-72
2023/07/04 01:01:22;;;;;;;11.70;9.30;;;;;;;18.96;60.10;99676.69;105218;1257;60558;-73
2023/07/04 01:03:52;;;;;;;10.20;9.10;;;;;;;18.93;59.93;99675.89;105610;1260;74159;-72
2023/07/04 01:06:38;;;;;;;10.60;9.40;;;;;;;18.90;59.96;99676.52;105797;1263;69642;-72
2023/07/04 01:09:08;;;;;;;9.60;8.40;;;;;;;18.87;59.82;99675.30;105524;1261;72818;-75
2023/07/04 01:11:42;;;;;;;10.90;8.90;;;;;;;18.84;59.73;99673.55;105568;1261;60573;-74
2023/07/04 01:14:19;;;;;;;10.40;9.30;;;;;;;18.84;59.89;99676.75;105659;1255;60678;-75
2023/07/04 01:16:47;;;;;;;13.60;9.70;;;;;;;18.82;60.11;99679.21;105775;1254;72694;-76
2023/07/04 01:19:19;;;;;;;12.90;8.50;;;;;;;18.80;59.80;99682.53;105620;1254;69979;-73
2023/07/04 01:21:47;;;;;;;11.40;9.20;;;;;;;18.77;59.90;99687.80;106279;1255;71448;-75
2023/07/04 01:24:22;;;;;;;10.10;9.00;;;;;;;18.73;60.48;99685.94;107528;1254;60514;-74
2023/07/04 01:26:50;;;;;;;11.00;8.40;;;;;;;18.69;60.76;99691.24;107366;1255;59469;-74
2023/07/04 01:29:18;;;;;;;9.70;8.50;;;;;;;18.65;60.74;99694.67;105694;1255;72947;-74
2023/07/04 01:31:45;;;;;;;12.30;8.60;;;;;;;18.61;60.76;99706.29;105541;1258;69043;-74
2023/07/04 01:34:14;;;;;;;10.70;7.80;;;;;;;18.58;61.23;99701.66;105750;1260;71487;-73
2023/07/04 01:36:44;;;;;;;10.10;8.50;;;;;;;18.53;61.67;99700.91;105736;1254;60523;-72
2023/07/04 01:39:15;;;;;;;12.80;9.00;;;;;;;18.50;61.70;99701.72;105602;1262;60415;-72
2023/07/04 01:41:45;;;;;;;11.20;8.50;;;;;;;18.46;61.52;99702.58;105579;1254;73871;-73
2023/07/04 01:44:15;;;;;;;12.40;8.50;;;;;;;18.42;61.76;99698.31;105552;1261;69646;-73
2023/07/04 01:46:43;;;;;;;12.80;8.90;;;;;;;18.38;62.17;99699.44;105844;1261;72675;-72
2023/07/04 01:49:12;;;;;;;12.70;8.80;;;;;;;18.34;62.48;99698.97;105626;1260;60481;-73
2023/07/04 01:51:40;;;;;;;10.20;8.40;;;;;;;18.28;62.46;99699.39;106147;1254;60442;-73
2023/07/04 01:54:09;;;;;;;15.20;8.90;;;;;;;18.24;62.72;99705.38;106202;1260;74382;-72
2023/07/04 01:56:37;;;;;;;10.10;8.70;;;;;;;18.18;62.85;99703.30;106482;1254;69061;-72
2023/07/04 01:59:07;;;;;;;9.90;8.80;;;;;;;18.15;63.02;99710.83;105473;1260;71450;-72
2023/07/04 02:01:38;;;;;;;12.40;8.60;;;;;;;18.10;63.27;99711.44;105820;1260;60394;-72
2023/07/04 02:04:05;;;;;;;13.30;8.50;;;;;;;18.08;63.37;99715.80;105302;1254;60479;-73
2023/07/04 02:06:33;;;;;;;11.40;8.40;;;;;;;18.06;63.66;99717.02;105226;1254;73884;-72
2023/07/04 02:09:01;;;;;;;10.60;8.10;;;;;;;18.04;63.91;99720.74;105257;1264;68955;-71
2023/07/04 02:11:28;;;;;;;11.00;8.90;;;;;;;18.01;63.99;99722.64;105528;1260;71461;-70
2023/07/04 02:13:56;;;;;;;10.10;8.30;;;;;;;17.99;64.05;99724.05;105293;1260;60547;-72
2023/07/04 02:16:24;;;;;;;13.20;8.30;;;;;;;17.95;64.05;99723.45;105584;1254;60503;-74
2023/07/04 02:18:51;;;;;;;12.40;9.40;;;;;;;17.93;64.43;99722.02;105861;1254;72366;-76
2023/07/04 02:21:19;;;;;;;15.40;10.50;;;;;;;17.91;64.51;99718.10;105546;1260;68995;-74
2023/07/04 02:23:47;;;;;;;11.00;9.20;;;;;;;17.90;64.34;99719.35;106326;1257;71416;-75
2023/07/04 02:26:14;;;;;;;10.80;9.00;;;;;;;17.90;64.29;99718.82;106450;1256;60857;-71
2023/07/04 02:28:42;;;;;;;13.00;8.70;;;;;;;17.93;64.38;99720.56;105627;1260;60359;-73
2023/07/04 02:31:10;;;;;;;11.30;8.90;;;;;;;17.95;64.13;99713.48;105668;1260;73890;-74
2023/07/04 02:33:38;;;;;;;10.40;8.20;;;;;;;17.97;64.34;99714.71;105612;1254;70186;-74
2023/07/04 02:36:11;;;;;;;11.50;8.60;;;;;;;18.01;64.47;99714.23;105512;1255;72796;-72
2023/07/04 02:38:39;;;;;;;15.00;8.80;;;;;;;18.03;64.58;99716.61;105709;1255;60452;-74
2023/07/04 02:41:08;;;;;;;13.90;8.00;;;;;;;18.04;64.66;99711.97;105676;1261;60355;-76
2023/07/04 02:43:35;;;;;;;11.00;8.70;;;;;;;18.05;64.62;99716.48;105645;1256;72647;-73
2023/07/04 02:46:04;;;;;;;15.40;8.90;;;;;;;18.06;65.05;99718.58;105552;1261;69230;-72
2023/07/04 02:48:32;;;;;;;12.00;8.80;;;;;;;18.06;65.39;99722.77;105708;1257;72413;-74
2023/07/04 02:51:01;;;;;;;11.50;8.70;;;;;;;18.06;65.54;99718.14;105544;1254;60468;-73
2023/07/04 02:53:29;;;;;;;17.80;9.50;;;;;;;18.07;65.42;99719.61;106191;1254;60525;-73
2023/07/04 02:55:57;;;;;;;16.10;9.40;;;;;;;18.10;65.37;99720.41;107497;1254;72909;-71
2023/07/04 02:58:27;;;;;;;14.10;9.10;;;;;;;18.14;65.44;99726.30;106133;1261;71471;-72
2023/07/04 03:00:55;;;;;;;16.60;8.80;;;;;;;18.18;65.23;99729.05;105561;1259;72537;-71
2023/07/04 03:03:24;;;;;;;11.60;7.90;;;;;;;18.21;64.82;99732.33;105661;1263;60544;-72
2023/07/04 03:05:52;;;;;;;11.70;8.80;;;;;;;18.27;63.80;99734.52;105867;1256;60412;-73
2023/07/04 03:08:19;;;;;;;11.50;8.80;;;;;;;18.34;63.35;99732.97;105763;1260;73453;-71
2023/07/04 03:10:47;;;;;;;13.50;8.60;;;;;;;18.42;62.82;99735.31;105549;1254;70088;-73
2023/07/04 03:13:17;;;;;;;10.40;8.00;;;;;;;18.50;62.63;99740.22;105651;1256;71569;-74
2023/07/04 03:15:45;;;;;;;12.00;8.50;;;;;;;18.57;62.29;99738.01;105546;1261;60561;-73
2023/07/04 03:18:12;;;;;;;12.00;8.30;;;;;;;18.66;61.93;99738.48;105541;1264;62474;-70
2023/07/04 03:20:40;;;;;;;16.90;9.00;;;;;;;18.74;62.13;99741.38;105658;1256;72870;-70
2023/07/04 03:23:09;;;;;;;14.00;7.90;;;;;;;18.82;62.53;99745.73;108470;1255;69299;-71
2023/07/04 03:25:36;;;;;;;12.80;8.10;;;;;;;18.90;62.73;99748.20;107614;1259;71450;-73
2023/07/04 03:28:04;;;;;;;12.40;9.40;;;;;;;18.97;62.18;99747.03;106321;1255;60546;-72
2023/07/04 03:30:32;;;;;;;11.10;8.30;;;;;;;19.06;61.59;99748.74;105526;1261;60893;-72
2023/07/04 03:33:06;;;;;;;12.20;9.10;;;;;;;19.14;61.22;99746.98;105531;1261;74112;-72
2023/07/04 03:35:38;;;;;;;11.30;8.10;;;;;;;19.22;61.04;99747.48;105502;1262;70111;-71
2023/07/04 03:38:24;;;;;;;10.60;9.00;;;;;;;19.31;60.83;99748.65;105567;1256;71845;-70
2023/07/04 03:40:52;;;;;;;12.30;8.40;;;;;;;19.38;60.86;99747.78;105494;1255;60795;-73
2023/07/04 03:43:22;;;;;;;14.70;8.50;;;;;;;19.46;60.70;99747.20;105633;1255;60461;-71
2023/07/04 03:45:50;;;;;;;12.80;8.20;;;;;;;19.54;60.62;99753.20;105603;1255;71991;-73
2023/07/04 03:48:18;;;;;;;13.40;9.20;;;;;;;19.60;60.71;99750.08;105550;1256;70277;-73
2023/07/04 03:50:45;;;;;;;11.80;9.10;;;;;;;19.67;60.56;99748.48;105508;1255;74908;-74
2023/07/04 03:53:13;;;;;;;12.20;9.30;;;;;;;19.74;60.53;99747.93;108171;1255;59209;-75
2023/07/04 03:55:41;;;;;;;12.80;9.00;;;;;;;19.83;60.22;99746.41;108541;1255;60225;-72
2023/07/04 03:58:09;;;;;;;11.40;8.70;;;;;;;19.92;60.15;99743.96;107315;1255;72648;-74
2023/07/04 04:00:36;;;;;;;12.20;9.10;;;;;;;20.01;59.88;99749.17;105473;1255;70007;-74
2023/07/04 04:03:04;;;;;;;10.00;8.40;;;;;;;20.11;59.56;99750.13;105493;1259;72782;-76
2023/07/04 04:05:32;;;;;;;16.40;8.80;;;;;;;20.19;59.52;99755.88;105552;1257;60535;-72
2023/07/04 04:08:00;;;;;;;12.70;9.70;;;;;;;20.27;59.38;99759.20;105533;1255;60331;-73
2023/07/04 04:10:27;;;;;;;11.80;9.90;;;;;;;20.36;59.22;99761.97;105712;1256;73366;-74
2023/07/04 04:12:55;;;;;;;19.00;10.80;;;;;;;20.45;59.01;99764.27;105531;1256;72745;-73
2023/07/04 04:15:22;;;;;;;12.00;9.60;;;;;;;20.54;58.88;99763.70;105692;1260;72796;-72
2023/07/04 04:17:50;;;;;;;12.00;9.30;;;;;;;20.62;58.75;99766.02;105515;1260;60509;-71
2023/07/04 04:20:18;;;;;;;15.20;9.10;;;;;;;20.70;58.63;99762.81;105624;1258;60484;-71
2023/07/04 04:22:47;;;;;;;13.30;9.00;;;;;;;20.79;58.59;99766.48;105590;1258;73993;-73
2023/07/04 04:25:15;;;;;;;11.50;8.80;;;;;;;20.87;58.25;99762.27;106874;1255;70650;-73
2023/07/04 04:27:46;;;;;;;16.00;9.10;;;;;;;20.97;58.11;99765.91;106466;1258;72535;-74
2023/07/04 04:30:14;;;;;;;13.10;9.20;;;;;;;21.07;57.72;99772.29;105660;1257;60534;-75
2023/07/04 04:32:41;;;;;;;9.50;8.50;;;;;;;21.18;57.06;99773.29;105661;1261;60517;-76
2023/07/04 04:35:09;;;;;;;14.40;9.60;;;;;;;21.31;57.07;99775.63;105639;1261;73829;-78
2023/07/04 04:37:37;;;;;;;14.70;9.10;;;;;;;21.46;56.89;99776.09;105567;1258;70495;-74
2023/07/04 04:40:06;;;;;;;14.60;8.40;;;;;;;21.64;56.12;99779.35;105311;1256;71582;-73
2023/07/04 04:42:34;;;;;;;10.00;7.70;;;;;;;21.82;55.45;99784.08;105635;1257;60535;-74
2023/07/04 04:45:03;;;;;;;11.30;8.10;;;;;;;22.00;55.02;99789.66;105729;1258;60473;-71
2023/07/04 04:47:34;;;;;;;11.90;8.70;;;;;;;22.16;54.91;99786.65;105284;1256;73987;-74
2023/07/04 04:50:02;;;;;;;15.60;9.70;;;;;;;22.32;54.61;99789.02;105517;1258;69203;-72
2023/07/04 04:52:32;;;;;;;15.60;9.10;;;;;;;22.49;54.48;99791.29;105911;1256;72627;-73
2023/07/04 04:55:03;;;;;;;9.50;8.50;;;;;;;22.64;54.23;99794.63;106871;1258;60579;-75
2023/07/04 04:57:30;;;;;;;14.00;8.60;;;;;;;22.78;53.80;99793.39;106338;1256;60526;-73
2023/07/04 04:59:59;;;;;;;11.80;8.50;;;;;;;22.88;53.66;99792.30;105713;1256;72803;-72
2023/07/04 05:02:29;;;;;;;12.10;9.00;;;;;;;22.98;53.42;99792.92;105970;1258;68899;-74
2023/07/04 05:04:59;;;;;;;14.10;9.30;;;;;;;23.09;53.44;99790.63;105963;1255;71402;-75
2023/07/04 05:07:27;;;;;;;12.70;9.30;;;;;;;23.19;53.35;99791.20;105515;1261;60443;-75
2023/07/04 05:09:56;;;;;;;14.00;10.10;;;;;;;23.29;52.85;99793.60;105491;1256;60533;-73
2023/07/04 05:12:24;;;;;;;13.90;9.00;;;;;;;23.38;53.03;99790.02;105647;1255;73201;-76
2023/07/04 05:14:52;;;;;;;16.70;8.90;;;;;;;23.45;52.30;99791.98;105652;1255;69032;-74
2023/07/04 05:17:20;;;;;;;13.00;8.40;;;;;;;23.54;51.61;99789.20;105521;1261;71394;-74
2023/07/04 05:19:48;;;;;;;12.50;7.70;;;;;;;23.61;50.62;99782.61;105584;1256;60454;-75
2023/07/04 05:22:17;;;;;;;10.20;7.30;;;;;;;23.68;49.91;99785.52;105914;1260;60388;-73
2023/07/04 05:24:44;;;;;;;10.60;8.00;;;;;;;23.81;49.03;99792.02;106656;1259;73754;-74
2023/07/04 05:27:12;;;;;;;11.80;7.70;;;;;;;23.96;48.40;99796.17;106890;1255;68806;-73
2023/07/04 05:29:39;;;;;;;8.10;7.20;;;;;;;24.10;48.03;99797.56;105602;1259;72692;-72
2023/07/04 05:32:08;;;;;;;12.00;7.50;;;;;;;24.22;47.57;99796.70;105309;1256;60522;-73
2023/07/04 05:34:35;;;;;;;10.70;7.10;;;;;;;24.29;46.89;99793.02;105728;1258;61072;-74
2023/07/04 05:37:04;;;;;;;9.00;7.10;;;;;;;24.35;46.53;99796.92;105666;1259;74757;-73
2023/07/04 05:39:32;;;;;;;10.00;7.10;;;;;;;24.38;45.96;99797.61;105665;1255;70833;-73
2023/07/04 05:41:59;;;;;;;13.20;7.30;;;;;;;24.40;45.83;99794.75;105692;1256;72916;-75
2023/07/04 05:44:26;;;;;;;10.80;6.90;;;;;;;24.39;45.72;99796.20;105618;1255;60385;-72
2023/07/04 05:46:54;;;;;;;12.00;7.40;;;;;;;24.36;45.48;99798.02;105799;1256;60719;-76
2023/07/04 05:49:22;;;;;;;13.70;7.20;;;;;;;24.34;45.76;99799.48;106147;1256;72718;-76
2023/07/04 05:51:49;;;;;;;9.10;7.40;;;;;;;24.36;45.99;99798.84;106155;1259;68861;-74
2023/07/04 05:54:17;;;;;;;8.30;7.40;;;;;;;24.38;46.10;99800.65;106354;1255;71469;-73
2023/07/04 05:56:44;;;;;;;11.90;7.30;;;;;;;24.38;46.04;99802.50;108062;1261;59441;-75
2023/07/04 05:59:11;;;;;;;12.50;7.00;;;;;;;24.39;45.92;99802.98;106076;1255;60760;-73
2023/07/04 06:01:41;;;;;;;9.10;7.40;;;;;;;24.37;45.96;99801.19;106033;1256;72640;-82
2023/07/04 06:04:10;;;;;;;8.40;7.40;;;;;;;24.38;46.20;99803.95;106099;1259;70937;-82
2023/07/04 06:07:05;;;;;;;11.10;7.70;;;;;;;24.43;46.29;99804.87;106811;1258;72557;-80
2023/07/04 06:09:32;;;;;;;10.70;7.90;;;;;;;24.53;46.06;99804.92;106862;1260;60461;-79
2023/07/04 06:12:00;;;;;;;9.90;7.40;;;;;;;24.58;46.07;99804.75;106534;1261;60424;-78
2023/07/04 06:14:28;;;;;;;14.20;8.10;;;;;;;24.61;46.09;99805.43;105680;1261;73888;-79
2023/07/04 06:16:56;;;;;;;12.70;7.80;;;;;;;24.60;46.03;99808.08;106040;1255;70505;-80
2023/07/04 06:19:24;;;;;;;9.50;6.90;;;;;;;24.61;46.05;99811.84;106893;1255;71482;-78
2023/07/04 06:21:52;;;;;;;11.90;7.90;;;;;;;24.66;46.11;99811.44;106819;1260;60276;-82
2023/07/04 06:24:26;;;;;;;10.80;7.70;;;;;;;24.76;46.00;99812.71;107681;1255;60480;-80
2023/07/04 06:27:17;;;;;;;11.00;7.80;;;;;;;24.84;46.06;99816.90;108541;1255;74910;-82
2023/07/04 06:29:48;;;;;;;12.20;7.70;;;;;;;24.89;45.41;99816.56;106477;1255;68723;-81
2023/07/04 06:32:15;;;;;;;10.20;7.90;;;;;;;24.92;45.26;99814.83;107642;1255;73117;-82
2023/07/04 06:34:43;;;;;;;9.40;7.80;;;;;;;24.96;45.18;99821.51;107870;1255;60459;-81
2023/07/04 06:37:10;;;;;;;11.40;7.60;;;;;;;24.97;44.96;99824.06;107334;1261;60550;-78
2023/07/04 06:39:38;;;;;;;12.90;8.40;;;;;;;24.99;45.04;99822.06;106092;1256;72347;-80
2023/07/04 06:42:05;;;;;;;8.70;6.70;;;;;;;25.03;44.85;99825.18;106435;1256;70636;-79
2023/07/04 06:44:34;;;;;;;9.30;8.00;;;;;;;25.03;44.49;99824.15;106466;1256;72959;-78
2023/07/04 06:47:01;;;;;;;11.90;7.80;;;;;;;25.04;44.27;99814.81;106252;1255;60475;-78
2023/07/04 06:49:29;;;;;;;10.00;7.20;;;;;;;25.06;44.30;99817.11;106199;1262;60570;-82
2023/07/04 06:51:56;;;;;;;11.30;7.70;;;;;;;25.12;44.77;99819.11;106694;1256;72613;-79
2023/07/04 06:54:24;;;;;;;9.40;6.80;;;;;;;25.17;44.86;99819.46;106992;1255;69141;-81
2023/07/04 06:56:51;;;;;;;13.80;7.90;;;;;;;25.24;44.82;99819.09;109243;1255;71516;-78
2023/07/04 06:59:19;;;;;;;9.20;7.30;;;;;;;25.33;44.46;99821.91;107347;1257;60579;-80
2023/07/04 07:01:46;;;;;;;7.80;6.10;;;;;;;25.41;42.99;99824.30;106038;1261;60766;-79
2023/07/04 07:04:16;;;;;;;9.70;6.80;;;;;;;25.41;42.47;99822.56;106114;1255;73095;-78
2023/07/04 07:06:43;;;;;;;11.10;7.00;;;;;;;25.39;41.82;99817.92;106178;1254;70627;-80
2023/07/04 07:09:11;;;;;;;10.50;6.90;;;;;;;25.36;42.11;99819.34;106257;1256;72721;-80
2023/07/04 07:11:40;;;;;;;8.30;7.10;;;;;;;25.33;42.23;99821.38;106395;1253;60438;-79
2023/07/04 07:14:07;;;;;;;12.20;7.90;;;;;;;25.27;42.18;99829.34;106976;1256;60443;-79
2023/07/04 07:16:35;;;;;;;11.20;8.30;;;;;;;25.22;42.26;99823.70;107080;1256;72529;-82
2023/07/04 07:19:02;;;;;;;12.50;7.40;;;;;;;25.23;42.43;99825.08;106399;1260;69092;-79
2023/07/04 07:21:30;;;;;;;8.00;6.70;;;;;;;25.25;42.10;99821.11;105764;1259;72597;-81
2023/07/04 07:23:59;;;;;;;8.40;7.00;;;;;;;25.25;42.04;99816.61;107838;1255;60431;-80
2023/07/04 07:26:28;;;;;;;12.50;7.80;;;;;;;25.29;42.49;99813.86;108709;1255;61045;-79
2023/07/04 07:28:56;;;;;;;11.80;7.30;;;;;;;25.37;42.62;99815.91;109042;1255;74014;-81
2023/07/04 07:31:30;;;;;;;10.60;7.30;;;;;;;25.47;42.94;99816.06;108962;1256;69281;-80
2023/07/04 07:34:06;;;;;;;9.20;7.70;;;;;;;25.61;42.77;99817.96;109112;1255;72213;-79
2023/07/04 07:36:37;;;;;;;15.80;8.20;;;;;;;25.72;42.56;99817.25;108465;1256;59173;-80
2023/07/04 07:39:09;;;;;;;9.30;7.10;;;;;;;25.82;41.60;99819.67;108820;1257;59012;-79
2023/07/04 07:41:45;;;;;;;10.80;7.30;;;;;;;25.81;41.37;99814.84;108817;1257;72759;-76
2023/07/04 07:44:13;;;;;;;12.40;7.90;;;;;;;25.77;41.70;99813.13;108853;1255;68703;-79
2023/07/04 07:46:43;;;;;;;11.00;7.50;;;;;;;25.80;41.72;99814.83;109099;1255;71413;-80
2023/07/04 07:49:11;;;;;;;10.30;7.20;;;;;;;25.82;41.65;99811.57;108760;1255;59994;-81
2023/07/04 07:51:41;;;;;;;10.80;7.20;;;;;;;25.87;41.80;99812.52;108438;1255;58827;-77
2023/07/04 07:54:10;;;;;;;11.70;6.90;;;;;;;25.98;41.91;99812.14;108071;1261;72639;-79
2023/07/04 07:56:40;;;;;;;10.60;7.30;;;;;;;26.11;41.97;99814.79;108437;1256;70678;-81
2023/07/04 07:59:07;;;;;;;8.80;6.70;;;;;;;26.24;41.49;99816.05;108933;1255;71629;-76
2023/07/04 08:01:35;;;;;;;10.90;7.00;;;;;;;26.35;41.21;99820.36;108784;1256;60353;-77
2023/07/04 08:04:03;;;;;;;11.30;7.10;;;;;;;26.44;40.73;99821.63;108660;1255;60956;-78
2023/07/04 08:06:43;;;;;;;8.20;7.40;;;;;;;26.52;40.18;99824.08;108322;1256;72669;-78
2023/07/04 08:09:16;;;;;;;9.80;7.30;;;;;;;26.59;39.96;99829.94;108575;1255;68924;-80
2023/07/04 08:11:46;;;;;;;10.60;6.80;;;;;;;26.61;38.88;99827.00;108663;1255;71341;-79
2023/07/04 08:14:17;;;;;;;11.10;7.20;;;;;;;26.58;39.21;99821.80;108209;1256;60484;-80
2023/07/04 08:16:50;;;;;;;8.90;7.00;;;;;;;26.60;38.75;99817.48;107728;1255;60462;-78
2023/07/04 08:19:20;;;;;;;9.90;7.10;;;;;;;26.58;38.29;99811.52;106350;1256;72518;-82
2023/07/04 08:21:47;;;;;;;9.70;6.80;;;;;;;26.58;39.05;99822.40;105930;1261;68736;-79
2023/07/04 08:24:15;;;;;;;8.90;6.90;;;;;;;26.60;39.53;99824.55;106356;1256;72724;-80
2023/07/04 08:26:45;;;;;;;10.60;7.30;;;;;;;26.64;39.45;99822.38;106914;1256;60448;-83
2023/07/04 08:29:12;;;;;;;9.90;6.80;;;;;;;26.82;39.28;99821.05;106530;1259;61169;-81
2023/07/04 08:31:40;;;;;;;8.50;6.70;;;;;;;27.13;39.08;99822.92;105825;1261;73448;-79
2023/07/04 08:34:10;;;;;;;10.80;7.60;;;;;;;27.41;38.05;99823.25;106334;1255;256933;-81
2023/07/04 08:39:00;;;;;;;9.20;6.70;;;;;;;27.73;37.08;99823.40;102883;1293;602761;-82
2023/07/04 08:41:56;;;;;;;10.20;6.40;;;;;;;27.82;36.43;99821.90;105387;1268;60358;-81
2023/07/04 08:44:37;;;;;;;8.60;7.20;;;;;;;27.87;36.62;99818.16;105543;1266;60173;-82
2023/07/04 08:47:04;;;;;;;9.40;7.00;;;;;;;27.96;36.65;99820.64;105759;1261;72231;-81
2023/07/04 08:49:41;;;;;;;11.50;7.40;;;;;;;28.05;36.24;99820.33;105694;1261;70960;-80
2023/07/04 08:52:09;;;;;;;7.90;7.00;;;;;;;28.15;36.34;99819.34;106163;1257;218450;-77
2023/07/04 08:54:36;;;;;;;8.90;7.40;;;;;;;28.27;36.07;99815.09;106761;1257;61971;-78
2023/07/04 08:57:22;;;;;;;12.20;7.70;;;;;;;28.41;36.35;99817.23;108623;1256;58828;-79
2023/07/04 08:59:52;;;;;;;11.10;7.40;;;;;;;28.60;35.67;99821.27;108078;1263;70719;-83
2023/07/04 09:03:05;;;;;;;11.70;7.40;;;;;;;28.72;35.39;99819.25;106671;1257;69683;-84
2023/07/04 09:05:53;;;;;;;9.20;7.00;;;;;;;28.73;34.75;99823.45;106318;1257;72654;-83
2023/07/04 09:08:24;;;;;;;10.00;6.80;;;;;;;28.56;34.72;99815.02;105966;1257;60315;-76
2023/07/04 09:10:54;;;;;;;11.90;7.20;;;;;;;28.48;35.27;99810.25;107299;1257;60621;-79
2023/07/04 09:13:34;;;;;;;8.60;7.30;;;;;;;28.59;35.32;99805.92;108051;1257;71888;-77
2023/07/04 09:16:06;;;;;;;9.60;7.10;;;;;;;28.84;35.29;99802.30;107667;1257;69294;-78
2023/07/04 09:18:39;;;;;;;7.80;6.40;;;;;;;29.15;35.07;99802.61;106436;1257;72688;-79
2023/07/04 09:21:12;;;;;;;;;;;;;;;29.36;34.39;99801.39;106116;1259;59551;-80
2023/07/04 09:23:39;;;;;;;;;;;;;;;29.57;34.35;99797.20;107106;1256;60177;-78
2023/07/04 09:26:15;;;;;;;8.30;7.20;;;;;;;29.90;34.21;99798.45;108785;1256;72176;-78
2023/07/04 09:28:43;;;;;;;10.90;7.30;;;;;;;30.35;33.62;99793.77;107351;1258;68858;-81
2023/07/04 09:31:31;;;;;;;9.10;6.60;;;;;;;30.96;33.21;99792.48;105903;1262;72670;-79
2023/07/04 09:34:01;;;;;;;9.10;7.20;;;;;;;31.75;32.15;99797.19;105968;1256;60219;-79
2023/07/04 09:36:32;;;;;;;8.90;7.20;;;;;;;32.35;31.27;99790.05;105926;1257;60229;-79
2023/07/04 09:39:04;;;;;;;7.90;7.10;;;;;;;32.79;31.19;99783.73;105851;1257;73047;-80
2023/07/04 09:41:34;;;;;;;12.00;7.90;;;;;;;33.39;30.77;99781.05;106010;1257;70592;-78
2023/07/04 09:44:15;;;;;;;9.90;7.00;;;;;;;34.06;30.18;99781.94;106314;1259;71299;-78
2023/07/04 09:46:50;;;;;;;8.40;6.90;;;;;;;34.66;29.09;99783.59;107940;1253;59483;-81
2023/07/04 09:49:23;;;;;;;7.60;6.80;;;;;;;34.81;28.80;99783.16;107732;1256;59598;-78
2023/07/04 09:52:17;;;;;;;9.70;7.50;;;;;;;34.96;28.60;99780.33;106942;1254;64612;-78
2023/07/04 09:54:44;;;;;;;9.00;7.00;;;;;;;35.06;28.59;99779.75;108897;1253;61611;-79
2023/07/04 09:57:26;;;;;;;11.40;7.50;;;;;;;35.18;29.05;99778.13;108375;1254;62832;-81
2023/07/04 09:59:54;;;;;;;7.50;6.50;;;;;;;35.73;29.07;99776.67;106099;1255;59608;-79
2023/07/04 10:02:35;;;;;;;9.70;7.10;;;;;;;36.44;28.28;99775.89;106562;1254;59534;-78
2023/07/04 10:05:02;;;;;;;10.20;7.10;;;;;;;37.06;28.06;99775.05;107648;1259;64338;-79
2023/07/04 10:07:30;;;;;;;8.10;7.00;;;;;;;37.66;27.32;99775.45;107445;1254;61697;-80
2023/07/04 10:10:04;;;;;;;8.30;6.40;;;;;;;38.15;27.02;99778.96;107147;1254;62759;-79
2023/07/04 10:12:39;;;;;;;7.20;6.50;;;;;;;38.50;26.39;99776.70;106528;1254;59818;-79
2023/07/04 10:15:07;;;;;;;7.70;6.30;;;;;;;38.58;25.41;99777.06;106584;1259;59707;-79
2023/07/04 10:17:41;;;;;;;7.20;6.50;;;;;;;38.40;25.55;99779.56;106740;1256;64480;-80
2023/07/04 10:20:14;;;;;;;9.90;6.60;;;;;;;38.39;25.56;99779.88;107669;1253;62701;-79
2023/07/04 10:22:49;;;;;;;9.20;6.30;;;;;;;38.41;25.68;99774.16;108466;1253;62644;-79
2023/07/04 10:25:28;;;;;;;9.50;6.30;;;;;;;38.59;25.71;99765.74;109519;1253;56948;-78
2023/07/04 10:28:10;;;;;;;7.90;6.30;;;;;;;38.99;25.28;99772.66;108097;1253;59724;-83
2023/07/04 10:30:38;;;;;;;7.40;6.60;;;;;;;39.02;25.14;99774.95;106464;1254;63201;-80
2023/07/04 10:33:15;;;;;;;9.70;6.50;;;;;;;39.03;25.06;99776.73;107151;1254;61607;-80
2023/07/04 10:35:45;;;;;;;7.00;5.50;;;;;;;39.18;24.80;99772.72;107178;1256;62575;-79
2023/07/04 10:38:27;;;;;;;9.30;6.40;;;;;;;39.21;24.81;99773.66;106688;1254;59822;-79
2023/07/04 10:40:56;;;;;;;9.90;6.20;;;;;;;39.17;24.79;99772.29;107581;1254;59276;-80
2023/07/04 10:43:31;;;;;;;7.70;6.50;;;;;;;38.99;24.81;99778.14;107309;1253;63008;-80
2023/07/04 10:45:58;;;;;;;7.40;6.70;;;;;;;38.71;25.06;99770.58;106201;1254;60140;-82
2023/07/04 10:48:31;;;;;;;8.40;6.00;;;;;;;38.38;25.23;99777.21;106064;1259;62671;-79
2023/07/04 10:51:16;;;;;;;8.40;6.40;;;;;;;38.15;25.36;99772.70;106931;1254;59591;-81
2023/07/04 10:53:43;;;;;;;7.00;6.00;;;;;;;38.14;25.23;99775.70;109482;1253;57125;-78
2023/07/04 10:56:15;;;;;;;7.10;6.40;;;;;;;38.09;25.05;99777.60;106687;1254;63184;-76
2023/07/04 10:58:43;;;;;;;6.40;5.90;;;;;;;38.21;24.98;99774.14;105922;1255;61709;-76
2023/07/04 11:01:25;;;;;;;9.60;6.80;;;;;;;38.47;25.07;99768.70;105935;1260;63800;-77
2023/07/04 11:04:13;;;;;;;7.90;6.90;;;;;;;38.97;24.71;99764.20;106040;1257;59752;-77
2023/07/04 11:06:42;;;;;;;6.90;6.20;;;;;;;39.52;24.69;99762.23;106536;1254;59717;-79
2023/07/04 11:09:13;;;;;;;6.30;5.70;;;;;;;40.14;24.46;99758.63;106481;1259;63124;-79
2023/07/04 11:11:45;;;;;;;7.80;6.30;;;;;;;40.68;23.89;99759.98;106912;1254;60116;-80
2023/07/04 11:14:19;;;;;;;7.50;6.80;;;;;;;41.03;23.68;99755.63;106815;1254;62591;-77
2023/07/04 11:16:46;;;;;;;7.30;6.50;;;;;;;41.24;23.54;99758.29;106395;1253;59660;-80
2023/07/04 11:19:25;;;;;;;7.40;6.60;;;;;;;41.55;23.32;99759.06;108479;1253;59234;-80
2023/07/04 11:22:02;;;;;;;6.50;5.90;;;;;;;41.68;23.01;99764.98;108752;1253;63245;-77
2023/07/04 11:24:34;;;;;;;7.10;5.90;;;;;;;40.96;23.26;99772.44;107650;1254;60282;-80
2023/07/04 11:27:06;;;;;;;7.50;6.10;;;;;;;40.02;23.84;99766.97;107132;1253;64204;-78
2023/07/04 11:29:53;;;;;;;7.40;5.70;;;;;;;39.38;24.36;99770.48;109004;1253;59717;-77
2023/07/04 11:32:34;;;;;;;6.40;5.80;;;;;;;38.92;24.57;99774.91;109145;1253;57105;-79
2023/07/04 11:35:20;;;;;;;9.10;6.30;;;;;;;38.78;24.41;99771.33;107783;1253;63736;-78
2023/07/04 11:38:05;;;;;;;6.70;6.00;;;;;;;38.92;24.31;99765.25;106753;1254;61499;-81